Time;durP1;ratioP1;P1;durP2;ratioP2;P2;SDS_P1;SDS_P2;PMS_P1;PMS_P2;Temp;Humidity;BMP_temperature;BMP_pressure;BME280_temperature;BME280_humidity;BME280_pressure;Samples;Min_cycle;Max_cycle;Signal;HPM_P1;HPM_P2
2023/01/07 00:01:22;;;;;;;5.67;4.80;;;6.10;99.90;;;;;;4843712;29;20563;-81
2023/01/07 00:03:48;;;;;;;9.00;4.93;;;6.10;99.90;;;;;;4860906;29;20185;-82
2023/01/07 00:06:17;;;;;;;8.67;5.13;;;6.10;99.90;;;;;;4861053;29;20185;-80
2023/01/07 00:08:45;;;;;;;6.50;4.67;;;6.10;99.90;;;;;;4859309;29;20189;-80
2023/01/07 00:11:24;;;;;;;8.93;5.40;;;6.10;99.90;;;;;;4860323;29;20251;-81
2023/01/07 00:13:51;;;;;;;6.50;4.77;;;6.20;99.90;;;;;;4861012;29;20220;-81
2023/01/07 00:16:19;;;;;;;7.73;5.17;;;6.30;99.90;;;;;;4860870;29;20732;-82
2023/01/07 00:18:45;;;;;;;7.17;5.27;;;6.30;99.90;;;;;;4843913;29;20233;-81
2023/01/07 00:21:13;;;;;;;7.20;5.47;;;6.40;99.90;;;;;;4844301;29;20209;-81
2023/01/07 00:23:41;;;;;;;6.93;5.07;;;6.50;99.90;;;;;;4860839;29;20177;-80
2023/01/07 00:26:13;;;;;;;6.40;5.13;;;6.60;99.90;;;;;;4860778;29;20219;-82
2023/01/07 00:28:41;;;;;;;10.07;5.00;;;6.80;99.90;;;;;;4863432;29;20185;-81
2023/01/07 00:31:18;;;;;;;7.43;5.37;;;6.90;99.90;;;;;;4863936;29;20248;-81
2023/01/07 00:34:05;;;;;;;6.20;5.00;;;7.00;99.90;;;;;;4864234;29;20226;-81
2023/01/07 00:36:34;;;;;;;8.87;5.30;;;7.00;99.90;;;;;;4850680;29;20542;-81
2023/01/07 00:39:04;;;;;;;6.70;4.77;;;7.00;99.90;;;;;;4864338;29;20184;-81
2023/01/07 00:41:31;;;;;;;8.97;4.97;;;7.00;99.90;;;;;;4864122;29;20165;-81
2023/01/07 00:43:56;;;;;;;5.23;4.47;;;7.00;99.90;;;;;;4864187;29;20196;-81
2023/01/07 00:46:22;;;;;;;5.30;4.40;;;7.00;99.90;;;;;;4864139;29;20211;-81
2023/01/07 00:48:48;;;;;;;7.53;4.80;;;7.00;99.90;;;;;;4863944;29;20180;-81
2023/01/07 00:51:15;;;;;;;7.53;4.60;;;7.00;99.90;;;;;;4863925;29;20189;-81
2023/01/07 00:53:42;;;;;;;7.63;4.87;;;7.00;99.90;;;;;;4864045;29;20185;-81
2023/01/07 00:56:13;;;;;;;8.33;3.97;;;7.00;99.90;;;;;;4863642;29;20236;-81
2023/01/07 00:58:39;;;;;;;4.70;3.90;;;7.00;99.90;;;;;;4863745;29;20188;-81
2023/01/07 01:01:05;;;;;;;4.60;3.50;;;7.10;99.90;;;;;;4863834;29;20200;-80
2023/01/07 01:03:31;;;;;;;5.83;4.10;;;7.00;99.90;;;;;;4863235;29;20176;-79
2023/01/07 01:06:11;;;;;;;9.67;4.30;;;7.10;99.90;;;;;;4846987;29;20544;-80
2023/01/07 01:08:37;;;;;;;7.33;4.43;;;7.10;99.90;;;;;;4863885;29;20176;-80
2023/01/07 01:11:08;;;;;;;8.90;4.47;;;7.10;99.90;;;;;;4863849;29;20622;-80
2023/01/07 01:13:34;;;;;;;5.77;3.80;;;7.10;99.90;;;;;;4863601;29;20177;-79
2023/01/07 01:16:00;;;;;;;4.57;3.60;;;7.10;99.90;;;;;;4863347;29;20316;-79
2023/01/07 01:18:26;;;;;;;6.47;4.37;;;7.10;99.90;;;;;;4863627;29;20632;-79
2023/01/07 01:20:51;;;;;;;5.43;4.10;;;7.10;99.90;;;;;;4863582;29;20205;-80
2023/01/07 01:23:17;;;;;;;5.03;4.10;;;7.10;99.90;;;;;;4863571;29;20248;-79
2023/01/07 01:25:43;;;;;;;5.07;3.67;;;7.10;99.90;;;;;;4862851;29;20203;-79
2023/01/07 01:28:08;;;;;;;5.63;4.03;;;7.20;99.90;;;;;;4863655;29;20205;-79
2023/01/07 01:30:34;;;;;;;5.73;4.23;;;7.20;99.90;;;;;;4863377;29;20200;-79
2023/01/07 01:33:00;;;;;;;4.27;3.70;;;7.30;99.90;;;;;;4863529;29;20232;-80
2023/01/07 01:35:26;;;;;;;8.73;3.97;;;7.30;99.90;;;;;;4863418;29;20173;-80
2023/01/07 01:37:52;;;;;;;6.87;4.03;;;7.30;99.90;;;;;;4863465;29;20200;-79
2023/01/07 01:40:17;;;;;;;5.57;3.97;;;7.40;99.90;;;;;;4846093;29;20180;-81
2023/01/07 01:42:43;;;;;;;5.93;4.20;;;7.40;99.90;;;;;;4863204;29;20630;-79
2023/01/07 01:45:11;;;;;;;7.50;4.20;;;7.40;99.90;;;;;;4863136;29;20229;-81
2023/01/07 01:47:43;;;;;;;4.50;3.97;;;7.40;99.90;;;;;;4863117;29;20217;-80
2023/01/07 01:50:29;;;;;;;4.67;3.73;;;7.50;99.90;;;;;;4863162;29;20201;-80
2023/01/07 01:53:15;;;;;;;5.77;3.97;;;7.50;99.90;;;;;;4862986;29;20216;-81
2023/01/07 01:55:46;;;;;;;6.47;3.90;;;7.50;99.90;;;;;;4862723;29;20184;-81
2023/01/07 01:58:24;;;;;;;7.83;3.93;;;7.50;99.90;;;;;;4862910;29;20613;-81
2023/01/07 02:03:28;;;;;;;6.67;3.57;;;7.60;99.90;;;;;;5110240;23;20251;-79
2023/01/07 02:05:54;;;;;;;5.47;3.60;;;7.60;99.90;;;;;;4861757;29;20193;-80
2023/01/07 02:08:22;;;;;;;4.87;3.70;;;7.70;99.90;;;;;;4862446;29;20201;-80
2023/01/07 02:11:13;;;;;;;7.57;3.70;;;7.70;99.90;;;;;;4862789;29;20184;-79
2023/01/07 02:13:48;;;;;;;5.10;3.57;;;7.70;99.90;;;;;;4844231;29;20205;-80
2023/01/07 02:16:35;;;;;;;3.87;3.00;;;7.70;99.90;;;;;;4844170;29;20213;-80
2023/01/07 02:19:08;;;;;;;6.07;3.57;;;7.70;99.90;;;;;;4843790;29;20517;-80
2023/01/07 02:21:52;;;;;;;3.67;3.20;;;7.80;99.90;;;;;;4844301;29;20190;-80
2023/01/07 02:24:33;;;;;;;3.97;2.85;;;7.80;99.90;;;;;;4844083;29;20166;-79
2023/01/07 02:27:37;;;;;;;5.53;2.80;;;7.80;99.90;;;;;;4843723;29;20233;-81
2023/01/07 02:30:21;;;;;;;5.43;2.40;;;7.80;99.90;;;;;;4787557;30;20194;-80
2023/01/07 02:33:07;;;;;;;2.60;2.13;;;7.80;99.90;;;;;;4786879;30;20215;-81
2023/01/07 02:35:32;;;;;;;2.37;1.97;;;7.80;99.90;;;;;;4828232;29;20196;-79
2023/01/07 02:38:04;;;;;;;2.70;2.00;;;7.90;99.90;;;;;;4827461;29;20644;-80
2023/01/07 02:40:47;;;;;;;2.13;1.90;;;7.90;99.90;;;;;;4843838;29;20221;-80
2023/01/07 02:43:21;;;;;;;2.17;1.80;;;8.00;99.90;;;;;;4861255;29;20196;-81
2023/01/07 02:46:17;;;;;;;3.03;2.10;;;8.00;99.90;;;;;;4862072;29;20169;-80
2023/01/07 02:48:44;;;;;;;4.63;2.03;;;8.00;99.90;;;;;;4862098;29;20177;-80
2023/01/07 02:51:10;;;;;;;2.07;1.87;;;8.10;99.90;;;;;;4862182;29;20236;-80
2023/01/07 02:53:36;;;;;;;4.23;2.20;;;8.10;99.90;;;;;;4861886;29;20652;-80
2023/01/07 02:56:24;;;;;;;3.73;2.03;;;8.20;99.90;;;;;;4861945;29;20176;-80
2023/01/07 02:59:05;;;;;;;3.93;2.33;;;8.20;99.90;;;;;;4861975;29;20208;-80
2023/01/07 03:01:49;;;;;;;5.90;2.22;;;8.20;99.90;;;;;;4862226;29;20180;-80
2023/01/07 03:04:33;;;;;;;2.67;2.20;;;8.30;99.90;;;;;;4843377;29;20185;-80
2023/01/07 03:07:30;;;;;;;3.43;2.20;;;8.30;99.90;;;;;;4843438;29;20177;-81
2023/01/07 03:10:02;;;;;;;2.17;1.93;;;8.30;99.90;;;;;;4843467;29;20177;-81
2023/01/07 03:12:48;;;;;;;2.40;2.17;;;8.30;99.90;;;;;;4842917;29;20269;-81
2023/01/07 03:15:40;;;;;;;2.58;1.98;;;8.30;99.90;;;;;;4843298;29;20189;-81
2023/01/07 03:18:25;;;;;;;2.30;1.95;;;8.30;99.90;;;;;;4843165;29;20605;-81
2023/01/07 03:20:56;;;;;;;2.30;2.10;;;8.30;99.90;;;;;;4843230;29;20178;-81
2023/01/07 03:23:25;;;;;;;2.57;2.10;;;8.30;99.90;;;;;;4843096;29;20190;-81
2023/01/07 03:25:53;;;;;;;2.53;2.13;;;8.30;99.90;;;;;;4843137;29;20181;-81
2023/01/07 03:28:26;;;;;;;3.57;2.10;;;8.30;99.90;;;;;;4843038;29;20531;-81
2023/01/07 03:30:54;;;;;;;3.37;2.10;;;8.30;99.90;;;;;;4843250;29;20169;-81
2023/01/07 03:33:25;;;;;;;2.87;1.83;;;8.30;99.90;;;;;;4842945;29;20661;-81
2023/01/07 03:35:54;;;;;;;2.10;1.90;;;8.30;99.90;;;;;;4843360;29;20185;-81
2023/01/07 03:38:22;;;;;;;4.57;1.80;;;8.40;99.90;;;;;;4843224;29;20185;-81
2023/01/07 03:40:48;;;;;;;3.17;2.20;;;8.30;99.90;;;;;;4843276;29;20178;-81
2023/01/07 03:43:18;;;;;;;4.67;2.17;;;8.30;99.90;;;;;;4842795;29;20634;-81
2023/01/07 03:45:45;;;;;;;2.33;1.87;;;8.40;99.90;;;;;;4841791;29;20221;-81
2023/01/07 03:48:10;;;;;;;2.78;2.08;;;8.40;99.90;;;;;;4843188;29;20231;-81
2023/01/07 03:50:36;;;;;;;3.93;2.13;;;8.30;99.90;;;;;;4843071;29;20633;-80
2023/01/07 03:53:02;;;;;;;4.47;2.30;;;8.30;99.90;;;;;;4842623;29;20221;-81
2023/01/07 03:55:28;;;;;;;3.67;2.40;;;8.40;99.90;;;;;;4843287;29;20186;-80
2023/01/07 03:57:55;;;;;;;3.73;2.20;;;8.40;99.90;;;;;;4842760;29;20644;-80
2023/01/07 04:00:21;;;;;;;3.03;2.13;;;8.40;99.90;;;;;;4842869;29;20181;-81
2023/01/07 04:02:46;;;;;;;3.60;2.33;;;8.40;99.90;;;;;;4852857;29;20240;-80
2023/01/07 04:05:13;;;;;;;3.03;2.30;;;8.40;99.90;;;;;;4865058;29;20185;-81
2023/01/07 04:07:38;;;;;;;2.40;2.20;;;8.40;99.90;;;;;;4865147;29;20185;-81
2023/01/07 04:10:06;;;;;;;2.60;2.30;;;8.40;99.90;;;;;;4865220;29;20193;-80
2023/01/07 04:12:32;;;;;;;2.30;1.97;;;8.40;99.90;;;;;;4864493;29;20599;-81
2023/01/07 04:14:58;;;;;;;3.17;2.40;;;8.40;99.90;;;;;;4864677;29;20316;-81
2023/01/07 04:17:23;;;;;;;2.73;2.10;;;8.40;99.90;;;;;;4864698;29;20180;-81
2023/01/07 04:19:49;;;;;;;3.10;2.17;;;8.40;99.90;;;;;;4864748;29;20264;-81
2023/01/07 04:22:14;;;;;;;2.40;2.20;;;8.40;99.90;;;;;;4864711;29;20542;-81
2023/01/07 04:24:40;;;;;;;2.60;2.10;;;8.40;99.90;;;;;;4864648;29;20181;-81
2023/01/07 04:27:06;;;;;;;2.97;2.42;;;8.40;99.90;;;;;;4864558;29;20177;-81
2023/01/07 04:29:32;;;;;;;3.03;2.30;;;8.40;99.90;;;;;;4864528;29;20181;-81
2023/01/07 04:31:57;;;;;;;2.57;2.10;;;8.40;99.90;;;;;;4864449;29;20520;-80
2023/01/07 04:34:23;;;;;;;3.57;2.43;;;8.40;99.90;;;;;;4864433;29;20228;-81
2023/01/07 04:36:49;;;;;;;2.50;2.20;;;8.30;99.90;;;;;;4864469;29;20517;-81
2023/01/07 04:39:15;;;;;;;6.20;2.53;;;8.30;99.90;;;;;;4847995;29;20500;-81
2023/01/07 04:41:41;;;;;;;2.30;2.10;;;8.30;99.90;;;;;;4864271;29;20193;-81
2023/01/07 04:44:07;;;;;;;3.25;2.40;;;8.20;99.90;;;;;;4863846;29;20260;-80
2023/01/07 04:46:32;;;;;;;3.20;2.10;;;8.30;99.90;;;;;;4864122;29;20177;-81
2023/01/07 04:48:58;;;;;;;3.83;2.40;;;8.30;99.90;;;;;;4864285;29;20195;-81
2023/01/07 04:51:24;;;;;;;2.60;2.20;;;8.30;99.90;;;;;;4864277;29;20212;-80
2023/01/07 04:53:49;;;;;;;2.55;2.22;;;8.30;99.90;;;;;;4864098;29;20626;-82
2023/01/07 04:56:15;;;;;;;3.23;2.30;;;8.30;99.90;;;;;;4864250;29;20495;-82
2023/01/07 04:58:41;;;;;;;2.95;2.20;;;8.30;99.90;;;;;;4863678;29;20173;-81
2023/01/07 05:01:07;;;;;;;3.85;2.10;;;8.40;99.90;;;;;;4863799;29;20187;-81
2023/01/07 05:03:33;;;;;;;3.15;2.30;;;8.40;99.90;;;;;;4863821;29;20273;-82
2023/01/07 05:05:59;;;;;;;2.53;2.30;;;8.40;99.90;;;;;;4864108;29;20268;-81
2023/01/07 05:08:25;;;;;;;3.10;2.20;;;8.30;99.90;;;;;;4863991;29;20181;-81
2023/01/07 05:10:51;;;;;;;2.38;2.13;;;8.30;99.90;;;;;;4863850;29;20195;-81
2023/01/07 05:13:20;;;;;;;4.15;2.40;;;8.30;99.90;;;;;;4863065;29;20327;-81
2023/01/07 05:15:46;;;;;;;3.40;2.10;;;8.20;99.90;;;;;;4863143;29;20198;-81
2023/01/07 05:18:12;;;;;;;2.58;2.08;;;8.20;99.90;;;;;;4863625;29;20177;-81
2023/01/07 05:20:38;;;;;;;2.90;2.10;;;8.20;99.90;;;;;;4863743;29;20669;-81
2023/01/07 05:23:05;;;;;;;3.10;2.05;;;8.10;99.90;;;;;;4863692;29;20667;-81
2023/01/07 05:25:35;;;;;;;2.60;1.80;;;8.10;99.90;;;;;;4847043;29;20185;-81
2023/01/07 05:28:00;;;;;;;4.70;2.10;;;8.10;99.90;;;;;;4863455;29;20255;-80
2023/01/07 05:30:26;;;;;;;2.20;2.00;;;8.10;99.90;;;;;;4863430;29;20292;-81
2023/01/07 05:32:52;;;;;;;4.33;2.03;;;8.10;99.90;;;;;;4863375;29;20217;-81
2023/01/07 05:35:18;;;;;;;4.07;2.17;;;8.00;99.90;;;;;;4863484;29;20268;-82
2023/01/07 05:37:45;;;;;;;2.93;1.90;;;8.00;99.90;;;;;;4863242;29;20628;-81
2023/01/07 05:40:11;;;;;;;1.90;1.50;;;8.00;99.90;;;;;;4863358;29;20570;-80
2023/01/07 05:42:36;;;;;;;2.67;2.00;;;7.90;99.90;;;;;;4862953;29;20221;-81
2023/01/07 05:45:03;;;;;;;4.50;2.00;;;7.90;99.90;;;;;;4863429;29;20609;-81
2023/01/07 05:47:28;;;;;;;2.20;1.73;;;7.90;99.90;;;;;;4863474;29;20220;-81
2023/01/07 05:49:54;;;;;;;2.53;2.10;;;7.90;99.90;;;;;;4863229;29;20220;-81
2023/01/07 05:52:20;;;;;;;2.43;1.97;;;7.90;99.90;;;;;;4863247;29;20220;-80
2023/01/07 05:54:45;;;;;;;2.30;2.05;;;7.90;99.90;;;;;;4863005;29;20233;-80
2023/01/07 05:57:11;;;;;;;3.13;2.17;;;7.90;99.90;;;;;;4862513;29;20200;-80
2023/01/07 05:59:37;;;;;;;3.37;2.30;;;7.90;99.90;;;;;;4863020;29;20526;-80
2023/01/07 06:02:03;;;;;;;3.47;2.40;;;7.90;99.90;;;;;;4862793;29;20606;-81
2023/01/07 06:04:29;;;;;;;3.43;2.50;;;8.00;99.90;;;;;;4862832;29;20188;-81
2023/01/07 06:06:54;;;;;;;4.07;2.70;;;8.00;99.90;;;;;;4862664;29;20192;-81
2023/01/07 06:09:21;;;;;;;3.40;2.42;;;8.00;99.90;;;;;;4862755;29;20173;-80
2023/01/07 06:11:47;;;;;;;2.88;2.38;;;8.00;99.90;;;;;;4861734;29;20200;-80
2023/01/07 06:14:13;;;;;;;4.13;2.70;;;8.10;99.90;;;;;;4862940;29;20185;-81
2023/01/07 06:16:38;;;;;;;2.57;2.37;;;8.10;99.90;;;;;;4862632;29;20184;-81
2023/01/07 06:19:04;;;;;;;2.80;2.25;;;8.10;99.90;;;;;;4862389;29;20184;-80
2023/01/07 06:21:30;;;;;;;3.10;2.40;;;8.10;99.90;;;;;;4862944;29;20184;-81
2023/01/07 06:23:56;;;;;;;3.63;2.53;;;8.10;99.90;;;;;;4862207;29;20214;-80
2023/01/07 06:26:22;;;;;;;2.83;2.37;;;8.10;99.90;;;;;;4861892;29;20177;-80
2023/01/07 06:28:47;;;;;;;3.00;2.30;;;8.10;99.90;;;;;;4862475;29;20189;-80
2023/01/07 06:31:13;;;;;;;2.80;2.22;;;8.10;99.90;;;;;;4862534;29;20263;-81
2023/01/07 06:33:39;;;;;;;4.78;2.60;;;8.10;99.90;;;;;;4862321;29;20280;-81
2023/01/07 06:36:06;;;;;;;2.55;2.35;;;8.00;99.90;;;;;;4862318;29;20188;-81
2023/01/07 06:38:32;;;;;;;3.30;2.67;;;8.10;99.90;;;;;;4849742;29;20177;-80
2023/01/07 06:40:58;;;;;;;3.25;2.60;;;8.00;99.90;;;;;;4857748;29;20187;-79
2023/01/07 06:43:24;;;;;;;4.18;2.58;;;8.00;99.90;;;;;;4878326;29;20196;-80
2023/01/07 06:45:50;;;;;;;3.20;2.60;;;8.00;99.90;;;;;;4862265;29;20173;-80
2023/01/07 06:48:16;;;;;;;4.33;3.33;;;8.00;99.90;;;;;;4871358;29;20184;-80
2023/01/07 06:50:43;;;;;;;3.60;2.67;;;7.90;99.90;;;;;;4878795;29;20187;-79
2023/01/07 06:53:09;;;;;;;7.90;3.30;;;8.00;99.90;;;;;;4860945;29;20272;-79
2023/01/07 06:55:34;;;;;;;5.13;3.22;;;8.00;99.90;;;;;;4860802;29;20192;-80
2023/01/07 06:58:00;;;;;;;4.60;3.60;;;8.00;99.90;;;;;;4858947;29;20276;-80
2023/01/07 07:00:26;;;;;;;6.20;4.00;;;8.00;99.90;;;;;;4858188;29;20294;-79
2023/01/07 07:02:52;;;;;;;7.28;3.95;;;8.00;99.90;;;;;;4860615;29;20614;-79
2023/01/07 07:05:17;;;;;;;10.30;4.17;;;8.00;99.90;;;;;;4860412;29;20184;-80
2023/01/07 07:07:43;;;;;;;11.40;4.43;;;8.00;99.90;;;;;;4847604;29;20255;-80
2023/01/07 07:10:09;;;;;;;5.43;3.97;;;8.00;99.90;;;;;;4861673;29;20195;-80
2023/01/07 07:12:36;;;;;;;6.93;4.32;;;8.00;99.90;;;;;;4852277;29;20231;-80
2023/01/07 07:15:03;;;;;;;5.17;4.13;;;8.10;99.90;;;;;;4860615;29;20648;-80
2023/01/07 07:17:29;;;;;;;6.97;4.60;;;8.10;99.90;;;;;;4857785;29;20185;-81
2023/01/07 07:19:55;;;;;;;6.63;4.23;;;8.10;99.90;;;;;;4849503;29;20685;-80
2023/01/07 07:22:21;;;;;;;6.43;4.07;;;8.10;99.90;;;;;;4861552;29;20559;-80
2023/01/07 07:24:46;;;;;;;5.95;4.43;;;8.10;99.90;;;;;;4861302;29;20704;-80
2023/01/07 07:27:12;;;;;;;6.93;4.70;;;8.10;99.90;;;;;;4861111;29;20184;-80
2023/01/07 07:29:38;;;;;;;5.87;4.10;;;8.20;99.90;;;;;;4861395;29;20176;-81
2023/01/07 07:32:04;;;;;;;5.53;4.30;;;8.20;99.90;;;;;;4860677;29;20220;-80
2023/01/07 07:34:29;;;;;;;6.63;4.30;;;8.20;99.90;;;;;;4861165;29;20176;-81
2023/01/07 07:36:55;;;;;;;6.27;4.27;;;8.20;99.90;;;;;;4843907;29;20643;-80
2023/01/07 07:39:21;;;;;;;6.27;3.70;;;8.10;99.90;;;;;;4861170;29;20176;-79
2023/01/07 07:41:47;;;;;;;6.30;4.30;;;8.20;99.90;;;;;;4861416;29;20187;-80
2023/01/07 07:44:12;;;;;;;5.73;4.20;;;8.20;99.90;;;;;;4861394;29;20191;-81
2023/01/07 07:46:38;;;;;;;6.93;4.03;;;8.20;99.90;;;;;;4861174;29;20312;-80
2023/01/07 07:49:04;;;;;;;6.53;4.20;;;8.20;99.90;;;;;;4861116;29;20184;-80
2023/01/07 07:51:30;;;;;;;6.85;3.75;;;8.20;99.90;;;;;;4861071;29;20271;-79
2023/01/07 07:53:56;;;;;;;6.53;3.77;;;8.20;99.90;;;;;;4860846;29;20367;-80
2023/01/07 07:56:22;;;;;;;6.97;3.70;;;8.20;99.90;;;;;;4844303;29;20176;-80
2023/01/07 07:58:48;;;;;;;6.22;3.65;;;8.20;99.90;;;;;;4861062;29;20609;-80
2023/01/07 08:01:13;;;;;;;4.73;3.60;;;8.20;99.90;;;;;;4844334;29;20541;-81
2023/01/07 08:03:39;;;;;;;5.73;3.50;;;8.20;99.90;;;;;;4860941;29;20247;-80
2023/01/07 08:06:05;;;;;;;4.60;3.47;;;8.20;99.90;;;;;;4860971;29;20592;-80
2023/01/07 08:08:31;;;;;;;4.30;3.42;;;8.10;99.90;;;;;;4861361;29;20193;-81
2023/01/07 08:10:57;;;;;;;9.25;4.30;;;8.10;99.90;;;;;;4861057;29;20188;-81
2023/01/07 08:13:22;;;;;;;8.73;3.65;;;8.10;99.90;;;;;;4844257;29;20212;-81
2023/01/07 08:15:48;;;;;;;5.57;3.70;;;8.10;99.90;;;;;;4861163;29;20504;-81
2023/01/07 08:18:14;;;;;;;4.47;3.43;;;8.10;99.90;;;;;;4860940;29;20225;-81
2023/01/07 08:20:39;;;;;;;4.43;3.63;;;8.10;99.90;;;;;;4860434;29;20212;-81
2023/01/07 08:23:06;;;;;;;4.10;3.53;;;8.10;99.90;;;;;;4860661;29;20891;-80
2023/01/07 08:25:33;;;;;;;4.13;3.60;;;8.20;99.90;;;;;;4861070;29;20229;-81
2023/01/07 08:28:00;;;;;;;4.57;3.70;;;8.20;99.90;;;;;;4860863;29;20263;-80
2023/01/07 08:30:27;;;;;;;3.97;3.38;;;8.20;99.90;;;;;;4860753;29;20499;-80
2023/01/07 08:32:53;;;;;;;4.65;3.10;;;8.20;99.90;;;;;;4860129;29;20557;-80
2023/01/07 08:35:19;;;;;;;3.60;3.15;;;8.20;99.90;;;;;;4860443;29;20169;-80
2023/01/07 08:37:44;;;;;;;3.90;3.13;;;8.30;99.90;;;;;;4860473;29;20185;-81
2023/01/07 08:40:11;;;;;;;4.40;2.83;;;8.30;99.90;;;;;;4860995;29;20202;-81
2023/01/07 08:42:38;;;;;;;4.23;3.00;;;8.40;99.90;;;;;;4861005;29;20224;-81
2023/01/07 08:45:06;;;;;;;4.53;2.72;;;8.40;99.90;;;;;;4843384;29;20593;-80
2023/01/07 08:47:32;;;;;;;3.60;2.88;;;8.40;99.90;;;;;;4858596;29;20666;-80
2023/01/07 08:49:58;;;;;;;3.42;2.60;;;8.50;99.90;;;;;;4863006;29;20173;-81
2023/01/07 08:52:24;;;;;;;3.13;2.35;;;8.50;99.90;;;;;;4863721;29;20223;-81
2023/01/07 08:54:50;;;;;;;2.40;2.20;;;8.50;99.90;;;;;;4863891;29;20293;-79
2023/01/07 08:57:17;;;;;;;3.28;2.53;;;8.60;99.90;;;;;;4864000;29;20298;-80
2023/01/07 08:59:43;;;;;;;3.00;2.67;;;8.60;99.90;;;;;;4864100;29;20188;-81
2023/01/07 09:02:17;;;;;;;2.97;2.45;;;8.70;99.90;;;;;;4863900;29;20236;-81
2023/01/07 09:04:43;;;;;;;4.57;2.55;;;8.70;99.90;;;;;;4863259;29;20620;-81
2023/01/07 09:07:09;;;;;;;2.47;2.28;;;8.80;99.90;;;;;;4863812;29;20295;-81
2023/01/07 09:09:35;;;;;;;2.60;2.13;;;8.80;99.90;;;;;;4863743;29;20626;-81
2023/01/07 09:12:02;;;;;;;2.10;1.90;;;8.80;99.90;;;;;;4862882;29;20220;-81
2023/01/07 09:14:28;;;;;;;2.42;2.22;;;8.90;99.90;;;;;;4863277;29;20177;-81
2023/01/07 09:16:53;;;;;;;2.53;2.05;;;8.90;99.90;;;;;;4846887;29;20190;-81
2023/01/07 09:19:19;;;;;;;1.70;1.60;;;8.90;99.90;;;;;;4863461;29;20181;-81
2023/01/07 09:21:45;;;;;;;2.63;1.80;;;9.00;99.90;;;;;;4863076;29;20288;-81
2023/01/07 09:24:11;;;;;;;2.58;1.80;;;9.00;99.90;;;;;;4863723;29;20185;-81
2023/01/07 09:26:37;;;;;;;1.60;1.50;;;9.00;99.90;;;;;;4846528;29;20189;-81
2023/01/07 09:29:03;;;;;;;2.10;1.80;;;9.00;99.90;;;;;;4863502;29;20184;-81
2023/01/07 09:31:28;;;;;;;1.70;1.60;;;9.00;99.90;;;;;;4863509;29;20169;-80
2023/01/07 09:33:54;;;;;;;1.50;1.40;;;9.10;99.90;;;;;;4863360;29;20582;-80
2023/01/07 09:36:20;;;;;;;1.52;1.40;;;9.10;99.90;;;;;;4863324;29;20188;-81
2023/01/07 09:38:45;;;;;;;2.10;1.90;;;9.10;99.90;;;;;;4863468;29;20522;-81
2023/01/07 09:41:37;;;;;;;2.90;1.60;;;9.10;99.90;;;;;;4862838;29;20196;-81
2023/01/07 09:44:36;;;;;;;1.87;1.60;;;9.10;99.90;;;;;;4839900;29;20644;-81
2023/01/07 09:47:04;;;;;;;1.92;1.42;;;9.20;99.90;;;;;;4839341;29;20200;-80
2023/01/07 09:49:31;;;;;;;2.85;1.70;;;9.20;99.90;;;;;;4862984;29;20196;-81
2023/01/07 09:52:09;;;;;;;2.53;1.63;;;9.20;99.90;;;;;;4862947;29;20265;-81
2023/01/07 09:54:37;;;;;;;1.60;1.50;;;9.30;99.90;;;;;;4847416;29;20191;-80
2023/01/07 09:57:03;;;;;;;3.63;1.57;;;9.30;99.90;;;;;;4845976;29;20188;-80
2023/01/07 09:59:29;;;;;;;2.65;1.65;;;9.30;99.90;;;;;;4862826;29;20189;-80
2023/01/07 10:02:21;;;;;;;2.30;1.80;;;9.40;99.90;;;;;;4861749;29;20647;-80
2023/01/07 10:05:02;;;;;;;1.70;1.60;;;9.30;99.90;;;;;;4862797;29;20181;-80
2023/01/07 10:07:40;;;;;;;3.25;1.60;;;9.30;99.90;;;;;;4846061;29;20176;-80
2023/01/07 10:11:02;;;;;;;2.42;1.77;;;9.40;99.90;;;;;;4845939;29;20574;-80
2023/01/07 10:13:36;;;;;;;1.77;1.40;;;9.50;99.90;;;;;;4805526;29;20310;-79
2023/01/07 10:16:14;;;;;;;1.83;1.70;;;9.50;99.90;;;;;;4861966;29;20196;-80
2023/01/07 10:18:55;;;;;;;2.33;1.77;;;9.50;99.90;;;;;;4862985;29;20484;-79
2023/01/07 10:21:43;;;;;;;2.50;1.60;;;9.60;99.90;;;;;;4862947;29;20208;-79
2023/01/07 10:24:23;;;;;;;2.67;1.50;;;9.70;99.90;;;;;;4862405;29;20244;-79
2023/01/07 10:26:53;;;;;;;2.55;1.83;;;9.70;99.90;;;;;;4862457;29;20799;-80
2023/01/07 10:29:31;;;;;;;1.80;1.48;;;9.70;99.90;;;;;;4862643;29;20543;-80
2023/01/07 10:32:20;;;;;;;1.88;1.55;;;9.80;99.90;;;;;;4862579;29;20204;-79
2023/01/07 10:34:52;;;;;;;2.30;1.50;;;9.80;99.90;;;;;;4862357;29;20183;-80
2023/01/07 10:37:33;;;;;;;2.47;1.60;;;9.90;99.90;;;;;;4862317;29;20168;-80
2023/01/07 10:40:23;;;;;;;1.90;1.50;;;10.00;99.90;;;;;;4862616;29;20255;-79
2023/01/07 10:43:16;;;;;;;2.35;1.80;;;10.10;99.90;;;;;;4861862;29;20199;-79
2023/01/07 10:46:06;;;;;;;1.80;1.50;;;10.10;99.90;;;;;;4862424;29;20255;-80
2023/01/07 10:48:52;;;;;;;4.38;1.42;;;10.20;99.90;;;;;;4862191;29;20523;-80
2023/01/07 10:51:43;;;;;;;1.38;1.23;;;10.20;99.90;;;;;;4852023;29;20193;-80
2023/01/07 10:54:15;;;;;;;2.47;1.38;;;10.20;99.90;;;;;;4862104;29;20280;-80
2023/01/07 10:56:48;;;;;;;1.20;1.10;;;10.20;99.90;;;;;;4861737;29;20214;-80
2023/01/07 10:59:18;;;;;;;2.25;1.23;;;10.20;99.90;;;;;;4861938;29;20177;-79
2023/01/07 11:01:52;;;;;;;1.48;1.17;;;10.20;99.90;;;;;;4861810;29;20252;-79
2023/01/07 11:04:19;;;;;;;1.40;0.90;;;10.30;99.90;;;;;;4861981;29;20191;-79
2023/01/07 11:07:03;;;;;;;1.10;1.00;;;10.30;99.90;;;;;;4861796;29;20632;-80
2023/01/07 11:09:38;;;;;;;1.00;0.93;;;10.30;99.90;;;;;;4861805;29;20193;-79
2023/01/07 11:13:00;;;;;;;1.08;0.98;;;10.30;99.90;;;;;;4843479;29;20216;-79
2023/01/07 11:15:34;;;;;;;2.53;1.30;;;10.40;99.90;;;;;;4768546;30;20657;-79
2023/01/07 11:18:34;;;;;;;0.80;0.80;;;10.50;99.90;;;;;;4847565;29;20201;-79
2023/01/07 11:20:59;;;;;;;1.75;1.23;;;10.60;99.90;;;;;;4861585;29;20267;-79
2023/01/07 11:23:35;;;;;;;1.45;1.20;;;10.60;99.90;;;;;;4861711;29;20251;-80
2023/01/07 11:26:09;;;;;;;1.80;1.42;;;10.60;99.90;;;;;;4844539;29;20172;-79
2023/01/07 11:28:36;;;;;;;5.82;1.20;;;10.70;99.90;;;;;;4860985;29;20533;-79
2023/01/07 11:31:01;;;;;;;1.10;1.00;;;10.60;99.90;;;;;;4861034;29;20192;-80
2023/01/07 11:33:49;;;;;;;2.08;1.10;;;10.60;99.90;;;;;;4843297;29;20227;-79
2023/01/07 11:36:15;;;;;;;1.17;1.05;;;10.60;99.90;;;;;;4858990;29;20317;-80
2023/01/07 11:38:41;;;;;;;1.63;1.17;;;10.60;99.90;;;;;;4860918;29;20271;-79
2023/01/07 11:41:20;;;;;;;1.35;1.02;;;10.60;99.90;;;;;;4860561;29;20294;-79
2023/01/07 11:43:51;;;;;;;1.20;1.05;;;10.70;99.90;;;;;;4860876;29;20177;-80
2023/01/07 11:46:19;;;;;;;1.20;1.00;;;10.70;99.90;;;;;;4860769;29;20511;-80
2023/01/07 11:48:55;;;;;;;0.98;0.90;;;10.70;99.90;;;;;;4861205;29;20212;-80
2023/01/07 11:51:21;;;;;;;1.05;0.65;;;10.80;99.90;;;;;;4861393;29;20212;-79
2023/01/07 11:53:56;;;;;;;0.80;0.63;;;10.90;99.90;;;;;;4861420;29;20243;-80
2023/01/07 11:56:32;;;;;;;1.10;0.77;;;11.10;99.90;;;;;;4844502;29;20210;-79
2023/01/07 11:59:19;;;;;;;0.60;0.60;;;11.20;99.90;;;;;;4844125;29;20624;-80
2023/01/07 12:01:58;;;;;;;0.65;0.60;;;11.20;99.90;;;;;;4844097;29;20189;-79
2023/01/07 12:04:27;;;;;;;1.60;0.60;;;11.30;99.90;;;;;;4860339;29;20192;-79
2023/01/07 12:06:56;;;;;;;0.57;0.50;;;11.40;99.90;;;;;;4860510;29;20248;-80
2023/01/07 12:09:30;;;;;;;0.70;0.50;;;11.50;99.90;;;;;;4861244;29;20177;-79
2023/01/07 12:11:59;;;;;;;0.50;0.40;;;11.40;99.90;;;;;;4860333;29;20303;-79
2023/01/07 12:14:31;;;;;;;1.15;0.60;;;11.30;99.90;;;;;;4857857;29;20217;-78
2023/01/07 12:17:21;;;;;;;3.10;0.50;;;11.20;99.90;;;;;;4854212;29;20508;-79
2023/01/07 12:19:52;;;;;;;2.58;0.50;;;11.20;99.90;;;;;;4860832;29;20177;-79
2023/01/07 12:22:44;;;;;;;0.90;0.50;;;11.20;99.90;;;;;;4860896;29;20177;-80
2023/01/07 12:25:46;;;;;;;1.50;0.68;;;11.20;99.90;;;;;;4851926;29;20211;-79
2023/01/07 12:28:44;;;;;;;2.15;0.90;;;11.10;99.90;;;;;;4864398;29;20180;-79
2023/01/07 12:31:41;;;;;;;1.75;0.90;;;11.10;99.90;;;;;;4820238;29;20659;-79
2023/01/07 12:34:31;;;;;;;0.65;0.55;;;11.00;99.90;;;;;;4859143;29;20190;-80
2023/01/07 12:37:03;;;;;;;2.85;0.63;;;10.90;99.90;;;;;;4850115;29;20191;-79
2023/01/07 12:39:34;;;;;;;0.90;0.57;;;10.90;99.90;;;;;;4864224;29;20589;-79
2023/01/07 12:42:06;;;;;;;0.85;0.60;;;10.80;99.90;;;;;;4864139;29;20558;-80
2023/01/07 12:44:35;;;;;;;0.50;0.40;;;10.80;99.90;;;;;;4864085;29;20481;-79
2023/01/07 12:47:10;;;;;;;1.25;0.40;;;10.70;99.90;;;;;;4864179;29;20613;-80
2023/01/07 12:50:15;;;;;;;0.77;0.50;;;10.70;99.90;;;;;;4862504;29;20267;-79
2023/01/07 12:52:59;;;;;;;0.85;0.60;;;10.70;99.90;;;;;;4860936;29;20216;-80
2023/01/07 12:55:50;;;;;;;1.20;0.57;;;10.70;99.90;;;;;;4845469;29;20184;-80
2023/01/07 12:58:36;;;;;;;0.95;0.50;;;10.70;99.90;;;;;;4845573;29;20652;-80
2023/01/07 13:01:16;;;;;;;0.50;0.45;;;10.70;99.90;;;;;;4849453;29;20278;-79
2023/01/07 13:04:06;;;;;;;0.57;0.35;;;10.80;99.90;;;;;;4863938;29;20691;-79
2023/01/07 13:06:45;;;;;;;0.43;0.40;;;10.80;99.90;;;;;;4847293;29;20185;-80
2023/01/07 13:09:25;;;;;;;0.75;0.40;;;10.80;99.90;;;;;;4864019;29;20172;-80
2023/01/07 13:15:00;;;;;;;0.80;0.35;;;10.80;99.90;;;;;;4863836;29;20194;-80
2023/01/07 13:17:28;;;;;;;2.03;0.40;;;10.80;99.90;;;;;;4863861;29;20616;-80
2023/01/07 13:19:54;;;;;;;0.43;0.40;;;10.80;99.90;;;;;;4863718;29;20279;-80
2023/01/07 13:22:35;;;;;;;2.95;0.82;;;10.80;99.90;;;;;;4845836;29;20199;-79